createdAt,value
2022-11-08T00:01:28.590Z,15.47
2022-11-08T00:03:55.816Z,15.56
2022-11-08T00:06:43.157Z,15.73
2022-11-08T00:09:28.801Z,15.71
2022-11-08T00:12:14.907Z,15.52
2022-11-08T00:14:42.919Z,14.93
2022-11-08T00:17:10.484Z,14.85
2022-11-08T00:19:43.324Z,14.60
2022-11-08T00:22:12.464Z,14.20
2022-11-08T00:24:39.808Z,14.11
2022-11-08T00:27:32.498Z,15.16
2022-11-08T00:29:59.981Z,15.36
2022-11-08T00:32:27.225Z,15.79
2022-11-08T00:34:54.446Z,15.69
2022-11-08T00:37:23.261Z,15.59
2022-11-08T00:39:53.213Z,15.70
2022-11-08T00:42:24.246Z,15.18
2022-11-08T00:44:51.350Z,14.75
2022-11-08T00:47:18.470Z,14.60
2022-11-08T00:49:46.379Z,14.68
2022-11-08T00:52:13.500Z,14.56
2022-11-08T00:54:40.607Z,14.44
2022-11-08T00:57:11.060Z,14.53
2022-11-08T00:59:41.111Z,14.72
2022-11-08T01:02:08.548Z,14.75
2022-11-08T01:04:38.024Z,14.89
2022-11-08T01:07:05.185Z,15.07
2022-11-08T01:09:32.745Z,14.91
2022-11-08T01:12:00.374Z,14.93
2022-11-08T01:14:28.819Z,14.85
2022-11-08T01:16:57.220Z,14.99
2022-11-08T01:19:24.304Z,15.09
2022-11-08T01:21:51.397Z,15.21
2022-11-08T01:24:25.380Z,15.16
2022-11-08T01:26:53.058Z,15.35
2022-11-08T01:29:20.123Z,15.47
2022-11-08T01:31:48.300Z,15.50
2022-11-08T01:34:15.382Z,14.83
2022-11-08T01:36:42.683Z,14.13
2022-11-08T01:39:13.433Z,14.84
2022-11-08T01:41:41.225Z,15.14
2022-11-08T01:44:17.394Z,15.10
2022-11-08T01:46:47.991Z,14.99
2022-11-08T01:49:33.818Z,14.89
2022-11-08T01:52:27.893Z,13.93
2022-11-08T01:55:23.325Z,14.60
2022-11-08T01:58:10.094Z,14.37
2022-11-08T02:00:40.071Z,14.27
2022-11-08T02:03:17.599Z,14.04
2022-11-08T02:05:46.145Z,13.55
2022-11-08T02:08:39.575Z,13.71
2022-11-08T02:11:11.793Z,13.78
2022-11-08T02:13:40.875Z,13.39
2022-11-08T02:16:17.666Z,13.84
2022-11-08T02:18:48.056Z,13.78
2022-11-08T02:21:49.923Z,13.75
2022-11-08T02:24:17.704Z,13.69
2022-11-08T02:26:47.203Z,14.04
2022-11-08T02:29:37.100Z,13.85
2022-11-08T02:32:06.476Z,13.45
2022-11-08T02:34:58.310Z,13.77
2022-11-08T02:37:27.199Z,13.99
2022-11-08T02:39:54.268Z,14.20
2022-11-08T02:42:24.620Z,14.21
2022-11-08T02:44:52.036Z,14.33
2022-11-08T02:47:19.317Z,14.29
2022-11-08T02:49:50.198Z,14.21
2022-11-08T02:52:18.030Z,14.35
2022-11-08T02:54:45.285Z,14.17
2022-11-08T02:57:12.789Z,13.94
2022-11-08T02:59:43.199Z,14.31
2022-11-08T03:02:10.486Z,14.84
2022-11-08T03:04:37.881Z,14.79
2022-11-08T03:07:07.214Z,14.22
2022-11-08T03:09:34.356Z,14.45
2022-11-08T03:12:05.122Z,13.65
2022-11-08T03:14:32.389Z,14.09
2022-11-08T03:17:02.326Z,14.08
2022-11-08T03:19:31.809Z,13.59
2022-11-08T03:22:02.152Z,14.00
2022-11-08T03:24:29.378Z,14.34
2022-11-08T03:26:56.417Z,13.83
2022-11-08T03:29:23.547Z,13.92
2022-11-08T03:31:50.702Z,13.78
2022-11-08T03:34:17.889Z,13.93
2022-11-08T03:36:45.022Z,14.09
2022-11-08T03:39:12.231Z,13.97
2022-11-08T03:41:40.024Z,14.28
2022-11-08T03:44:07.498Z,14.18
2022-11-08T03:46:34.849Z,14.68
2022-11-08T03:49:03.339Z,14.16
2022-11-08T03:51:30.426Z,14.03
2022-11-08T03:54:00.241Z,14.04
2022-11-08T03:56:27.684Z,13.77
2022-11-08T03:58:55.981Z,14.06
2022-11-08T04:01:23.536Z,14.50
2022-11-08T04:03:50.563Z,14.46
2022-11-08T04:06:17.771Z,14.27
2022-11-08T04:08:46.226Z,14.52
2022-11-08T04:11:32.142Z,13.79
2022-11-08T04:14:17.728Z,13.89
2022-11-08T04:16:45.115Z,14.23
2022-11-08T04:19:31.134Z,14.54
2022-11-08T04:22:00.802Z,14.18
2022-11-08T04:24:29.877Z,14.01
2022-11-08T04:27:01.629Z,14.11
2022-11-08T04:29:32.419Z,14.28
2022-11-08T04:32:05.452Z,13.67
2022-11-08T04:34:32.778Z,13.75
2022-11-08T04:37:00.083Z,13.59
2022-11-08T04:39:27.707Z,13.49
2022-11-08T04:42:00.740Z,13.93
2022-11-08T04:44:29.151Z,14.08
2022-11-08T04:47:03.888Z,13.67
2022-11-08T04:49:30.959Z,12.98
2022-11-08T04:51:58.639Z,13.68
2022-11-08T04:54:26.681Z,13.67
2022-11-08T04:56:54.931Z,14.15
2022-11-08T04:59:22.654Z,14.11
2022-11-08T05:01:50.244Z,14.15
2022-11-08T05:04:18.287Z,14.13
2022-11-08T05:06:45.352Z,13.79
2022-11-08T05:09:15.218Z,13.89
2022-11-08T05:11:42.319Z,13.58
2022-11-08T05:14:16.881Z,13.46
2022-11-08T05:16:47.816Z,13.74
2022-11-08T05:19:38.864Z,13.89
2022-11-08T05:22:26.417Z,14.31
2022-11-08T05:24:55.497Z,14.75
2022-11-08T05:27:41.685Z,14.73
2022-11-08T05:30:09.472Z,14.34
2022-11-08T05:32:38.746Z,14.08
2022-11-08T05:35:08.824Z,13.97
2022-11-08T05:37:35.930Z,14.03
2022-11-08T05:40:03.144Z,13.69
2022-11-08T05:42:36.005Z,13.29
2022-11-08T05:45:09.975Z,14.57
2022-11-08T05:47:45.260Z,14.53
2022-11-08T05:50:19.108Z,14.60
2022-11-08T05:52:48.941Z,14.47
2022-11-08T05:55:16.780Z,14.26
2022-11-08T05:57:44.100Z,14.14
2022-11-08T06:00:15.376Z,14.26
2022-11-08T06:02:45.620Z,14.17
2022-11-08T06:05:14.207Z,14.52
2022-11-08T06:07:41.799Z,14.72
2022-11-08T06:10:09.369Z,14.36
2022-11-08T06:12:38.380Z,14.43
2022-11-08T06:15:25.484Z,14.15
2022-11-08T06:17:53.321Z,14.30
2022-11-08T06:20:26.427Z,13.31
2022-11-08T06:23:00.208Z,14.18
2022-11-08T06:25:27.288Z,14.40
2022-11-08T06:28:00.970Z,14.57
2022-11-08T06:30:28.334Z,13.57
2022-11-08T06:32:58.795Z,14.76
2022-11-08T06:35:33.586Z,15.09
2022-11-08T06:38:08.196Z,15.19
2022-11-08T06:40:40.881Z,15.51
2022-11-08T06:43:13.803Z,15.44
2022-11-08T06:45:45.323Z,14.53
2022-11-08T06:48:12.592Z,14.73
2022-11-08T06:50:42.582Z,15.17
2022-11-08T06:53:14.156Z,15.55
2022-11-08T06:55:42.422Z,15.52
2022-11-08T06:58:11.843Z,15.74
2022-11-08T07:00:39.603Z,14.68
2022-11-08T07:03:06.848Z,14.84
2022-11-08T07:05:35.239Z,15.85
2022-11-08T07:08:05.352Z,16.36
2022-11-08T07:10:33.338Z,16.24
2022-11-08T07:13:06.335Z,14.70
2022-11-08T07:15:36.020Z,13.84
2022-11-08T07:18:14.972Z,14.51
2022-11-08T07:20:42.970Z,14.45
2022-11-08T07:23:12.762Z,14.34
2022-11-08T07:25:42.158Z,14.84
2022-11-08T07:28:20.453Z,15.17
2022-11-08T07:30:49.511Z,15.07
2022-11-08T07:33:18.229Z,14.42
2022-11-08T07:35:47.599Z,14.83
2022-11-08T07:38:14.806Z,14.43
2022-11-08T07:40:41.936Z,14.85
2022-11-08T07:43:12.215Z,15.31
2022-11-08T07:45:41.792Z,15.33
2022-11-08T07:48:13.399Z,15.12
2022-11-08T07:50:43.133Z,15.21
2022-11-08T07:53:13.725Z,14.94
2022-11-08T07:55:44.050Z,14.80
2022-11-08T07:58:16.452Z,15.57
2022-11-08T08:00:45.814Z,16.21
2022-11-08T08:03:14.668Z,16.18
2022-11-08T08:05:59.586Z,15.49
2022-11-08T08:08:29.242Z,14.86
2022-11-08T08:11:01.630Z,14.84
2022-11-08T08:13:30.252Z,15.44
2022-11-08T08:16:04.188Z,15.42
2022-11-08T08:18:32.857Z,15.37
2022-11-08T08:20:59.912Z,15.53
2022-11-08T08:23:29.835Z,15.51
2022-11-08T08:26:03.446Z,15.34
2022-11-08T08:28:30.939Z,15.68
2022-11-08T08:31:01.088Z,16.12
2022-11-08T08:33:34.249Z,16.21
2022-11-08T08:36:02.117Z,16.41
2022-11-08T08:38:31.283Z,16.41
2022-11-08T08:40:59.251Z,16.63
2022-11-08T08:43:29.946Z,17.16
2022-11-08T08:46:03.565Z,16.62
2022-11-08T08:48:33.569Z,16.78
2022-11-08T08:51:04.503Z,17.25
2022-11-08T08:53:32.541Z,17.79
2022-11-08T08:55:59.719Z,17.45
2022-11-08T08:58:26.796Z,17.45
2022-11-08T09:03:41.082Z,18.65
2022-11-08T09:06:08.893Z,19.02
2022-11-08T09:08:36.482Z,19.06
2022-11-08T09:11:04.162Z,20.16
2022-11-08T09:13:32.519Z,20.33
2022-11-08T09:16:03.198Z,20.91
2022-11-08T09:18:32.690Z,22.47
2022-11-08T09:21:01.169Z,21.64
2022-11-08T09:23:28.232Z,21.56
2022-11-08T09:26:04.338Z,22.14
2022-11-08T09:28:37.680Z,22.47
2022-11-08T09:31:12.922Z,22.12
2022-11-08T09:33:42.082Z,23.38
2022-11-08T09:36:14.183Z,23.22
2022-11-08T09:38:42.220Z,24.12
2022-11-08T09:41:51.346Z,22.81
2022-11-08T09:45:06.971Z,23.90
2022-11-08T09:47:45.734Z,23.03
2022-11-08T09:50:40.009Z,24.05
2022-11-08T09:53:39.017Z,25.18
2022-11-08T09:56:21.548Z,23.66
2022-11-08T09:59:10.012Z,23.99
2022-11-08T10:01:41.108Z,25.30
2022-11-08T10:04:23.872Z,26.49
2022-11-08T10:07:39.673Z,28.93
2022-11-08T10:10:36.368Z,27.45
2022-11-08T10:13:44.070Z,26.37
2022-11-08T10:16:31.676Z,27.30
2022-11-08T10:19:41.604Z,26.05
2022-11-08T10:22:29.743Z,27.92
2022-11-08T10:25:15.542Z,26.29
2022-11-08T10:27:43.618Z,29.13
2022-11-08T10:30:20.683Z,29.72
2022-11-08T10:33:45.910Z,27.99
2022-11-08T10:36:24.967Z,31.40
2022-11-08T10:39:03.527Z,30.15
2022-11-08T10:42:44.239Z,26.74
2022-11-08T10:45:13.576Z,31.86
2022-11-08T10:48:04.523Z,33.23
2022-11-08T10:50:51.484Z,29.30
2022-11-08T10:53:44.402Z,30.27
2022-11-08T10:56:11.646Z,32.17
2022-11-08T10:58:42.689Z,33.37
2022-11-08T11:01:25.756Z,34.44
2022-11-08T11:03:53.999Z,34.31
2022-11-08T11:06:35.756Z,32.24
2022-11-08T11:09:20.570Z,33.18
2022-11-08T11:12:02.665Z,34.76
2022-11-08T11:14:29.786Z,32.99
2022-11-08T11:17:19.817Z,31.18
2022-11-08T11:19:56.125Z,31.80
2022-11-08T11:22:51.670Z,33.20
2022-11-08T11:25:27.344Z,33.51
2022-11-08T11:28:01.979Z,33.60
2022-11-08T11:30:37.041Z,35.98
2022-11-08T11:33:29.728Z,36.59
2022-11-08T11:36:24.548Z,36.97
2022-11-08T11:39:19.269Z,29.41
2022-11-08T11:42:17.768Z,34.88
2022-11-08T11:45:10.639Z,36.70
2022-11-08T11:47:54.233Z,38.09
2022-11-08T11:50:36.956Z,37.36
2022-11-08T11:53:33.511Z,37.36
2022-11-08T11:56:39.380Z,37.20
2022-11-08T11:59:30.589Z,32.28
2022-11-08T12:02:41.567Z,36.73
2022-11-08T12:05:59.840Z,36.73
2022-11-08T12:09:00.544Z,39.89
2022-11-08T12:11:59.446Z,36.71
2022-11-08T12:15:00.467Z,36.77
2022-11-08T12:18:36.551Z,32.66
2022-11-08T12:21:10.627Z,32.25
2022-11-08T12:24:34.051Z,29.89
2022-11-08T12:27:39.462Z,29.14
2022-11-08T12:30:49.293Z,28.51
2022-11-08T12:33:40.742Z,28.06
2022-11-08T12:36:46.235Z,29.18
2022-11-08T12:39:47.473Z,30.61
2022-11-08T12:42:50.258Z,29.01
2022-11-08T12:45:36.961Z,28.79
2022-11-08T12:48:37.109Z,34.31
2022-11-08T12:51:10.117Z,34.72
2022-11-08T12:53:56.830Z,31.80
2022-11-08T12:56:58.080Z,30.72
2022-11-08T12:59:48.222Z,29.73
2022-11-08T13:02:32.283Z,28.29
2022-11-08T13:05:54.141Z,29.96
2022-11-08T13:08:53.788Z,32.43
2022-11-08T13:11:41.314Z,33.76
2022-11-08T13:14:23.738Z,33.54
2022-11-08T13:17:27.816Z,33.42
2022-11-08T13:20:05.406Z,33.32
2022-11-08T13:22:32.965Z,31.60
2022-11-08T13:25:06.180Z,29.44
2022-11-08T13:27:40.772Z,27.44
2022-11-08T13:30:17.059Z,27.45
2022-11-08T13:32:47.571Z,30.32
2022-11-08T13:35:38.840Z,31.10
2022-11-08T13:38:33.279Z,30.99
2022-11-08T13:41:24.553Z,30.86
2022-11-08T13:43:58.792Z,31.67
2022-11-08T13:46:29.858Z,32.62
2022-11-08T13:49:21.345Z,33.22
2022-11-08T13:51:48.535Z,34.37
2022-11-08T13:54:21.503Z,33.08
2022-11-08T13:57:00.597Z,34.38
2022-11-08T13:59:33.351Z,31.00
2022-11-08T14:02:24.555Z,27.65
2022-11-08T14:04:54.695Z,25.19
2022-11-08T14:08:15.310Z,29.70
2022-11-08T14:11:26.387Z,30.77
2022-11-08T14:14:27.201Z,29.59
2022-11-08T14:17:24.958Z,28.87
2022-11-08T14:20:14.351Z,27.66
2022-11-08T14:22:49.973Z,28.61
2022-11-08T14:25:36.261Z,28.91
2022-11-08T14:28:03.859Z,29.97
2022-11-08T14:30:33.659Z,32.82
2022-11-08T14:33:17.523Z,31.98
2022-11-08T14:36:07.493Z,30.96
2022-11-08T14:38:45.783Z,30.48
2022-11-08T14:41:27.051Z,28.67
2022-11-08T14:43:57.529Z,28.06
2022-11-08T14:46:40.100Z,27.94
2022-11-08T14:49:18.825Z,27.59
2022-11-08T14:51:46.653Z,27.31
2022-11-08T14:54:22.719Z,27.22
2022-11-08T14:56:53.383Z,26.48
2022-11-08T14:59:20.560Z,26.12
2022-11-08T15:01:51.673Z,26.38
2022-11-08T15:04:27.440Z,26.03
2022-11-08T15:06:58.285Z,25.33
2022-11-08T15:09:36.363Z,25.39
2022-11-08T15:12:20.963Z,25.15
2022-11-08T15:14:57.869Z,25.01
2022-11-08T15:17:42.712Z,24.69
2022-11-08T15:20:23.655Z,24.40
2022-11-08T15:22:56.322Z,24.56
2022-11-08T15:25:38.317Z,23.93
2022-11-08T15:28:33.183Z,23.87
2022-11-08T15:31:06.472Z,23.67
2022-11-08T15:33:41.189Z,23.81
2022-11-08T15:36:23.667Z,24.62
2022-11-08T15:38:50.975Z,24.58
2022-11-08T15:41:39.933Z,24.75
2022-11-08T15:44:21.525Z,24.24
2022-11-08T15:46:49.400Z,23.94
2022-11-08T15:49:22.270Z,23.64
2022-11-08T15:51:53.100Z,23.65
2022-11-08T15:54:23.340Z,23.54
2022-11-08T15:56:57.398Z,22.89
2022-11-08T15:59:31.411Z,22.34
2022-11-08T16:02:01.878Z,21.80
2022-11-08T16:04:30.105Z,21.58
2022-11-08T16:07:01.660Z,21.14
2022-11-08T16:09:30.639Z,21.11
2022-11-08T16:12:03.456Z,20.90
2022-11-08T16:14:31.731Z,21.20
2022-11-08T16:17:13.375Z,21.08
2022-11-08T16:19:40.906Z,20.79
2022-11-08T16:22:08.215Z,20.98
2022-11-08T16:24:35.711Z,20.74
2022-11-08T16:27:05.672Z,20.35
2022-11-08T16:29:35.142Z,20.43
2022-11-08T16:32:03.030Z,20.40
2022-11-08T16:34:30.704Z,20.68
2022-11-08T16:37:01.484Z,20.78
2022-11-08T16:39:32.663Z,20.91
2022-11-08T16:42:02.542Z,20.52
2022-11-08T16:44:32.461Z,19.84
2022-11-08T16:47:01.374Z,19.56
2022-11-08T16:49:30.115Z,19.34
2022-11-08T16:52:00.447Z,19.64
2022-11-08T16:54:29.883Z,19.44
2022-11-08T16:57:21.111Z,19.49
2022-11-08T16:59:51.843Z,19.27
2022-11-08T17:02:31.045Z,19.20
2022-11-08T17:05:00.618Z,19.40
2022-11-08T17:07:29.836Z,19.67
2022-11-08T17:09:58.115Z,19.80
2022-11-08T17:12:25.386Z,19.05
2022-11-08T17:14:52.628Z,19.16
2022-11-08T17:17:23.388Z,19.14
2022-11-08T17:19:55.431Z,19.33
2022-11-08T17:22:24.752Z,19.07
2022-11-08T17:25:00.694Z,18.53
2022-11-08T17:27:28.577Z,19.21
2022-11-08T17:29:57.229Z,18.99
2022-11-08T17:32:24.467Z,18.89
2022-11-08T17:34:51.606Z,18.89
2022-11-08T17:37:19.435Z,18.87
2022-11-08T17:39:49.718Z,18.41
2022-11-08T17:42:33.967Z,18.23
2022-11-08T17:45:10.439Z,18.14
2022-11-08T17:47:39.597Z,17.30
2022-11-08T17:50:10.645Z,16.53
2022-11-08T17:52:43.899Z,16.52
2022-11-08T17:55:11.548Z,16.91
2022-11-08T17:57:39.604Z,17.00
2022-11-08T18:00:10.942Z,17.42
2022-11-08T18:02:40.164Z,17.73
2022-11-08T18:05:09.023Z,17.54
2022-11-08T18:07:41.746Z,17.56
2022-11-08T18:10:13.059Z,17.20
2022-11-08T18:12:48.612Z,17.98
2022-11-08T18:15:21.775Z,18.13
2022-11-08T18:17:50.130Z,18.52
2022-11-08T18:20:18.236Z,17.78
2022-11-08T18:22:46.632Z,17.36
2022-11-08T18:25:14.208Z,17.70
2022-11-08T18:27:42.069Z,17.64
2022-11-08T18:30:10.414Z,17.86
2022-11-08T18:32:38.469Z,18.00
2022-11-08T18:35:08.575Z,18.24
2022-11-08T18:37:43.871Z,18.36
2022-11-08T18:40:16.626Z,18.40
2022-11-08T18:42:51.667Z,18.16
2022-11-08T18:45:20.675Z,18.57
2022-11-08T18:47:49.681Z,18.34
2022-11-08T18:50:20.421Z,17.60
2022-11-08T18:53:03.362Z,17.49
2022-11-08T18:55:36.885Z,17.73
2022-11-08T18:58:08.658Z,17.74
2022-11-08T19:00:37.637Z,17.60
2022-11-08T19:03:10.816Z,17.79
2022-11-08T19:05:38.440Z,17.77
2022-11-08T19:08:11.359Z,17.62
2022-11-08T19:10:39.048Z,17.38
2022-11-08T19:13:10.687Z,17.15
2022-11-08T19:15:38.136Z,17.06
2022-11-08T19:18:07.936Z,16.95
2022-11-08T19:20:42.287Z,16.96
2022-11-08T19:23:14.596Z,16.89
2022-11-08T19:25:54.964Z,16.95
2022-11-08T19:28:32.640Z,16.97
2022-11-08T19:31:08.919Z,17.00
2022-11-08T19:33:37.596Z,17.18
2022-11-08T19:36:16.497Z,17.20
2022-11-08T19:38:52.107Z,17.53
2022-11-08T19:41:26.942Z,17.63
2022-11-08T19:43:55.840Z,17.76
2022-11-08T19:46:43.783Z,17.55
2022-11-08T19:49:12.949Z,17.72
2022-11-08T19:51:41.015Z,17.40
2022-11-08T19:54:15.610Z,17.75
2022-11-08T19:59:38.770Z,17.61
2022-11-08T20:02:10.422Z,17.17
2022-11-08T20:04:40.115Z,17.43
2022-11-08T20:07:10.244Z,17.23
2022-11-08T20:09:39.981Z,17.18
2022-11-08T20:12:11.687Z,17.10
2022-11-08T20:14:38.934Z,16.93
2022-11-08T20:17:07.347Z,16.79
2022-11-08T20:19:36.318Z,16.79
2022-11-08T20:22:04.653Z,16.56
2022-11-08T20:24:32.995Z,16.46
2022-11-08T20:27:01.335Z,16.32
2022-11-08T20:29:30.337Z,16.51
2022-11-08T20:32:00.341Z,16.38
2022-11-08T20:34:30.561Z,16.54
2022-11-08T20:36:59.683Z,16.58
2022-11-08T20:39:27.559Z,16.63
2022-11-08T20:42:00.737Z,16.70
2022-11-08T20:44:29.634Z,16.63
2022-11-08T20:47:00.544Z,16.40
2022-11-08T20:49:35.128Z,16.33
2022-11-08T20:52:03.012Z,16.40
2022-11-08T20:54:30.261Z,16.38
2022-11-08T20:57:01.240Z,16.56
2022-11-08T20:59:35.532Z,16.61
2022-11-08T21:02:04.242Z,16.73
2022-11-08T21:04:36.728Z,16.83
2022-11-08T21:10:13.538Z,17.28
2022-11-08T21:12:49.087Z,17.33
2022-11-08T21:15:24.246Z,17.25
2022-11-08T21:17:57.372Z,17.13
2022-11-08T21:20:42.905Z,16.51
2022-11-08T21:23:16.800Z,16.88
2022-11-08T21:25:50.404Z,16.33
2022-11-08T21:28:31.582Z,15.97
2022-11-08T21:31:11.045Z,15.55
2022-11-08T21:33:58.376Z,14.04
2022-11-08T21:39:42.560Z,15.40
2022-11-08T21:42:29.776Z,14.27
2022-11-08T21:45:07.092Z,13.45
2022-11-08T21:47:39.277Z,13.46
2022-11-08T21:50:12.558Z,15.08
2022-11-08T21:52:55.712Z,15.20
2022-11-08T21:55:38.247Z,15.10
2022-11-08T21:58:07.144Z,15.40
2022-11-08T22:00:39.831Z,15.41
2022-11-08T22:03:21.985Z,15.69
2022-11-08T22:05:56.986Z,16.10
2022-11-08T22:08:33.968Z,15.80
2022-11-08T22:11:17.991Z,16.03
2022-11-08T22:13:45.895Z,14.70
2022-11-08T22:16:20.337Z,14.09
2022-11-08T22:19:05.109Z,14.29
2022-11-08T22:21:41.687Z,15.17
2022-11-08T22:24:13.006Z,15.32
2022-11-08T22:27:13.801Z,14.84
2022-11-08T22:29:45.277Z,15.16
2022-11-08T22:32:20.647Z,15.17
2022-11-08T22:34:47.966Z,15.36
2022-11-08T22:37:21.928Z,15.55
2022-11-08T22:39:49.682Z,15.36
2022-11-08T22:42:20.421Z,15.30
2022-11-08T22:44:47.544Z,15.20
2022-11-08T22:47:15.354Z,15.04
2022-11-08T22:49:49.301Z,14.65
2022-11-08T22:52:22.137Z,13.70
2022-11-08T22:54:51.712Z,13.56
2022-11-08T22:57:19.793Z,14.46
2022-11-08T22:59:52.642Z,14.64
2022-11-08T23:02:32.708Z,14.89
2022-11-08T23:05:03.823Z,14.88
2022-11-08T23:07:33.336Z,14.54
2022-11-08T23:10:03.498Z,14.98
2022-11-08T23:12:49.136Z,15.12
2022-11-08T23:15:37.300Z,15.32
2022-11-08T23:18:08.012Z,15.35
2022-11-08T23:20:54.455Z,15.30
2022-11-08T23:23:45.400Z,15.09
2022-11-08T23:26:18.977Z,14.94
2022-11-08T23:29:08.123Z,14.99
2022-11-08T23:31:35.441Z,15.23
2022-11-08T23:34:07.125Z,15.43
2022-11-08T23:36:43.413Z,15.70
2022-11-08T23:39:13.413Z,15.76
2022-11-08T23:42:00.856Z,15.53
2022-11-08T23:44:28.720Z,15.35
2022-11-08T23:47:02.610Z,15.09
2022-11-08T23:49:31.361Z,15.22
2022-11-08T23:52:02.332Z,15.04
2022-11-08T23:54:32.139Z,15.21
2022-11-08T23:57:06.168Z,15.49
2022-11-08T23:59:36.780Z,15.89
